Time;durP1;ratioP1;P1;durP2;ratioP2;P2;SDS_P1;SDS_P2;PMS_P1;PMS_P2;Temp;Humidity;BMP_temperature;BMP_pressure;BME280_temperature;BME280_humidity;BME280_pressure;Samples;Min_cycle;Max_cycle;Signal;HPM_P1;HPM_P2
2021/03/07 00:01:04;;;;;;;12.17;6.30;;;;;;;;;;4376401;32;20158;-80
2021/03/07 00:03:52;;;;;;;9.47;5.80;;;;;;;;;;4376611;32;20165;-80
2021/03/07 00:06:31;;;;;;;12.37;7.00;;;;;;;;;;4376953;32;20157;-82
2021/03/07 00:09:02;;;;;;;17.50;6.90;;;;;;;;;;4376373;32;20193;-81
2021/03/07 00:11:34;;;;;;;12.47;6.17;;;;;;;;;;4390485;32;20164;-81
2021/03/07 00:14:25;;;;;;;14.27;7.07;;;;;;;;;;4376141;32;20193;-81
2021/03/07 00:17:28;;;;;;;17.07;7.27;;;;;;;;;;4375555;32;20190;-81
2021/03/07 00:20:39;;;;;;;16.60;7.17;;;;;;;;;;4376599;32;20472;-81
2021/03/07 00:22:45;;;;;;;13.03;6.83;;;;;;;;;;4387960;32;20178;-81
2021/03/07 00:25:19;;;;;;;15.57;8.73;;;;;;;;;;4376313;32;20225;-81
2021/03/07 00:27:55;;;;;;;17.23;7.77;;;;;;;;;;4390559;32;20201;-79
2021/03/07 00:30:34;;;;;;;13.07;7.20;;;;;;;;;;4375947;32;20225;-79
2021/03/07 00:33:08;;;;;;;13.60;7.30;;;;;;;;;;4375934;32;20160;-79
2021/03/07 00:35:57;;;;;;;17.00;9.30;;;;;;;;;;4386471;32;20214;-79
2021/03/07 00:38:35;;;;;;;13.93;7.93;;;;;;;;;;4405520;32;20150;-79
2021/03/07 00:41:35;;;;;;;15.90;8.03;;;;;;;;;;4391181;32;20180;-79
2021/03/07 00:44:35;;;;;;;16.63;8.53;;;;;;;;;;4388565;32;20527;-79
2021/03/07 00:47:19;;;;;;;;;;;;;;;;;;;;;
2021/03/07 00:49:58;;;;;;;;;;;;;;;;;;;;;
2021/03/07 00:52:34;;;;;;;16.53;9.43;;;;;;;;;;4405269;32;20475;-79
2021/03/07 00:55:19;;;;;;;18.93;10.00;;;;;;;;;;4390502;32;20173;-78
2021/03/07 00:58:30;;;;;;;;;;;;;;;;;;;;;
2021/03/07 01:01:05;;;;;;;17.83;10.17;;;;;;;;;;4405195;32;20139;-77
2021/03/07 01:03:42;;;;;;;18.13;11.33;;;;;;;;;;4390841;32;20196;-76
2021/03/07 01:06:10;;;;;;;17.83;11.03;;;;;;;;;;4390935;32;20162;-78
2021/03/07 01:08:50;;;;;;;16.63;10.33;;;;;;;;;;4390701;32;20674;-77
2021/03/07 01:11:23;;;;;;;16.57;10.80;;;;;;;;;;4391202;32;20460;-77
2021/03/07 01:14:05;;;;;;;15.43;10.13;;;;;;;;;;4391432;32;20158;-77
2021/03/07 01:16:53;;;;;;;;;;;;;;;;;;;;;
2021/03/07 01:19:35;;;;;;;15.87;10.53;;;;;;;;;;4404941;32;20184;-77
2021/03/07 01:22:12;;;;;;;;;;;;;;;;;;;;;
2021/03/07 01:24:45;;;;;;;18.33;10.50;;;;;;;;;;4404971;32;20149;-77
2021/03/07 01:27:36;;;;;;;19.50;11.20;;;;;;;;;;4391225;32;20156;-77
2021/03/07 01:30:12;;;;;;;18.23;10.67;;;;;;;;;;4386987;32;20170;-77
2021/03/07 01:32:40;;;;;;;18.87;10.20;;;;;;;;;;4391719;32;20616;-77
2021/03/07 01:35:06;;;;;;;19.50;10.47;;;;;;;;;;4393287;32;20196;-77
2021/03/07 01:37:40;;;;;;;17.23;10.37;;;;;;;;;;4393536;32;20193;-77
2021/03/07 01:40:30;;;;;;;15.87;9.67;;;;;;;;;;4393548;32;20158;-77
2021/03/07 01:43:05;;;;;;;16.50;9.80;;;;;;;;;;4407596;32;20145;-77
2021/03/07 01:45:42;;;;;;;14.60;9.77;;;;;;;;;;4393306;32;20161;-76
2021/03/07 01:48:09;;;;;;;15.30;9.63;;;;;;;;;;4407357;32;20126;-77
2021/03/07 01:50:38;;;;;;;19.27;10.70;;;;;;;;;;4393063;32;20239;-77
2021/03/07 01:53:12;;;;;;;18.10;10.30;;;;;;;;;;4393172;32;20173;-77
2021/03/07 01:55:39;;;;;;;13.60;9.60;;;;;;;;;;4393147;32;20190;-76
2021/03/07 01:58:07;;;;;;;15.33;9.27;;;;;;;;;;4393044;32;20651;-77
2021/03/07 02:00:32;;;;;;;12.73;8.73;;;;;;;;;;4406852;32;20145;-77
2021/03/07 02:03:18;;;;;;;18.70;10.37;;;;;;;;;;4406607;32;20497;-77
2021/03/07 02:05:47;;;;;;;17.13;10.40;;;;;;;;;;4393245;32;20158;-77
2021/03/07 02:08:13;;;;;;;18.33;10.77;;;;;;;;;;4393359;32;20189;-76
2021/03/07 02:11:00;;;;;;;17.30;9.73;;;;;;;;;;4406682;32;20139;-77
2021/03/07 02:14:03;;;;;;;16.30;9.60;;;;;;;;;;4393313;32;20238;-77
2021/03/07 02:16:58;;;;;;;14.20;8.87;;;;;;;;;;4406526;32;20567;-77
2021/03/07 02:19:33;;;;;;;16.70;8.70;;;;;;;;;;4392938;32;20169;-77
2021/03/07 02:22:07;;;;;;;11.87;8.07;;;;;;;;;;4393094;32;20165;-76
2021/03/07 02:24:50;;;;;;;11.93;8.70;;;;;;;;;;4392882;32;20153;-77
2021/03/07 02:27:26;;;;;;;12.23;8.40;;;;;;;;;;4393278;32;20586;-78
2021/03/07 02:30:11;;;;;;;13.83;8.50;;;;;;;;;;4393037;32;20158;-78
2021/03/07 02:33:06;;;;;;;11.67;8.00;;;;;;;;;;4392904;32;20614;-78
2021/03/07 02:35:38;;;;;;;16.43;8.93;;;;;;;;;;4405191;32;20169;-79
2021/03/07 02:38:17;;;;;;;17.07;9.20;;;;;;;;;;4404997;32;20203;-78
2021/03/07 02:41:04;;;;;;;14.00;8.73;;;;;;;;;;4405741;32;20215;-78
2021/03/07 02:43:46;;;;;;;18.50;9.00;;;;;;;;;;4406328;32;20169;-78
2021/03/07 02:46:27;;;;;;;14.57;8.90;;;;;;;;;;4392153;32;20534;-78
2021/03/07 02:48:56;;;;;;;12.43;8.53;;;;;;;;;;4392514;32;20228;-77
2021/03/07 02:51:36;;;;;;;12.77;8.27;;;;;;;;;;4392353;32;20162;-78
2021/03/07 02:54:17;;;;;;;12.40;8.53;;;;;;;;;;4392578;32;20232;-77
2021/03/07 02:56:54;;;;;;;13.57;8.90;;;;;;;;;;4392239;32;20154;-77
2021/03/07 02:59:37;;;;;;;14.27;8.70;;;;;;;;;;4392163;32;20157;-77
2021/03/07 03:02:06;;;;;;;11.83;7.40;;;;;;;;;;4392793;32;20185;-77
2021/03/07 03:05:02;;;;;;;;;;;;;;;;;;;;;
2021/03/07 03:07:49;;;;;;;13.40;8.47;;;;;;;;;;4406529;32;20153;-77
2021/03/07 03:10:48;;;;;;;;;;;;;;;;;;;;;
2021/03/07 03:13:38;;;;;;;;;;;;;;;;;;;;;
2021/03/07 03:16:20;;;;;;;;;;;;;;;;;;;;;
2021/03/07 03:19:02;;;;;;;;;;;;;;;;;;;;;
2021/03/07 03:21:38;;;;;;;11.97;8.27;;;;;;;;;;4405573;32;20164;-78
2021/03/07 03:24:09;;;;;;;13.33;8.27;;;;;;;;;;4392098;32;20181;-77
2021/03/07 03:26:38;;;;;;;11.73;7.60;;;;;;;;;;4392200;32;20245;-77
2021/03/07 03:29:13;;;;;;;11.63;7.37;;;;;;;;;;4405396;32;20225;-77
2021/03/07 03:31:49;;;;;;;;;;;;;;;;;;;;;
2021/03/07 03:34:34;;;;;;;11.93;7.90;;;;;;;;;;4404937;32;20204;-77
2021/03/07 03:37:10;;;;;;;;;;;;;;;;;;;;;
2021/03/07 03:39:40;;;;;;;16.53;9.07;;;;;;;;;;4405401;32;20145;-77
2021/03/07 03:42:12;;;;;;;12.33;7.30;;;;;;;;;;4391684;32;20646;-77
2021/03/07 03:44:50;;;;;;;12.90;8.37;;;;;;;;;;4391712;32;20591;-77
2021/03/07 03:47:26;;;;;;;11.90;8.30;;;;;;;;;;4392238;32;20185;-77
2021/03/07 03:49:53;;;;;;;17.10;9.40;;;;;;;;;;4405417;32;20137;-77
2021/03/07 03:52:37;;;;;;;14.20;9.03;;;;;;;;;;4391413;32;20188;-77
2021/03/07 03:55:22;;;;;;;13.80;8.83;;;;;;;;;;4391110;32;20512;-77
2021/03/07 03:58:24;;;;;;;;;;;;;;;;;;;;;
2021/03/07 04:01:31;;;;;;;15.87;9.27;;;;;;;;;;4402246;32;20191;-77
2021/03/07 04:03:56;;;;;;;14.23;9.93;;;;;;;;;;4404564;32;20173;-77
2021/03/07 04:06:45;;;;;;;15.77;10.23;;;;;;;;;;4391608;32;20188;-76
2021/03/07 04:09:16;;;;;;;14.33;8.93;;;;;;;;;;4387614;32;20218;-77
2021/03/07 04:11:42;;;;;;;14.20;9.30;;;;;;;;;;4390958;32;20181;-77
2021/03/07 04:14:17;;;;;;;12.63;8.77;;;;;;;;;;4391147;32;20487;-77
2021/03/07 04:16:52;;;;;;;12.70;8.90;;;;;;;;;;4391463;32;20465;-77
2021/03/07 04:19:18;;;;;;;14.80;9.30;;;;;;;;;;4391297;32;20584;-77
2021/03/07 04:22:07;;;;;;;15.20;9.37;;;;;;;;;;4405046;32;20138;-77
2021/03/07 04:25:03;;;;;;;;;;;;;;;;;;;;;
2021/03/07 04:27:34;;;;;;;12.20;8.70;;;;;;;;;;4384978;32;20193;-76
2021/03/07 04:30:10;;;;;;;14.97;9.60;;;;;;;;;;4390976;32;20185;-77
2021/03/07 04:32:52;;;;;;;13.87;9.23;;;;;;;;;;4405472;32;20198;-77
2021/03/07 04:35:18;;;;;;;14.73;9.80;;;;;;;;;;4404863;32;20141;-77
2021/03/07 04:37:54;;;;;;;;;;;;;;;;;;;;;
2021/03/07 04:40:38;;;;;;;;;;;;;;;;;;;;;
2021/03/07 04:43:30;;;;;;;13.53;9.83;;;;;;;;;;4405043;32;20243;-77
2021/03/07 04:45:52;;;;;;;15.03;9.70;;;;;;;;;;4403662;32;20193;-77
2021/03/07 04:48:41;;;;;;;13.50;9.57;;;;;;;;;;4390843;32;20211;-77
2021/03/07 04:51:11;;;;;;;13.03;9.93;;;;;;;;;;4404811;32;20631;-76
2021/03/07 04:53:46;;;;;;;12.03;8.87;;;;;;;;;;4391163;32;20209;-77
2021/03/07 04:56:14;;;;;;;12.17;9.13;;;;;;;;;;4391235;32;20215;-77
2021/03/07 04:58:59;;;;;;;12.70;9.03;;;;;;;;;;4390940;32;20162;-77
2021/03/07 05:01:35;;;;;;;17.27;10.10;;;;;;;;;;4390254;32;20165;-76
2021/03/07 05:04:24;;;;;;;14.20;8.80;;;;;;;;;;4404961;32;20182;-77
2021/03/07 05:06:52;;;;;;;14.37;9.50;;;;;;;;;;4390966;32;20181;-76
2021/03/07 05:09:37;;;;;;;12.33;9.80;;;;;;;;;;4393524;32;20197;-77
2021/03/07 05:12:28;;;;;;;;;;;;;;;;;;;;;
2021/03/07 05:15:26;;;;;;;;;;;;;;;;;;;;;
2021/03/07 05:18:10;;;;;;;;;;;;;;;;;;;;;
2021/03/07 05:20:43;;;;;;;11.07;7.97;;;;;;;;;;4407990;32;20138;-76
2021/03/07 05:23:11;;;;;;;15.20;8.43;;;;;;;;;;4393271;32;20185;-76
2021/03/07 05:25:57;;;;;;;;;;;;;;;;;;;;;
2021/03/07 05:28:40;;;;;;;;;;;;;;;;;;;;;
2021/03/07 05:31:34;;;;;;;11.40;7.30;;;;;;;;;;4407600;32;20173;-76
2021/03/07 05:33:58;;;;;;;15.67;7.43;;;;;;;;;;4406588;32;20170;-76
2021/03/07 05:36:23;;;;;;;10.43;7.50;;;;;;;;;;4393282;32;20158;-76
2021/03/07 05:38:57;;;;;;;10.77;7.20;;;;;;;;;;4407496;32;20146;-77
2021/03/07 05:41:26;;;;;;;10.93;7.40;;;;;;;;;;4407404;32;20150;-76
2021/03/07 05:44:03;;;;;;;12.90;7.63;;;;;;;;;;4393276;32;20217;-76
2021/03/07 05:46:31;;;;;;;11.70;6.90;;;;;;;;;;4407752;32;20194;-76
2021/03/07 05:49:09;;;;;;;11.07;7.20;;;;;;;;;;4407025;32;20547;-76
2021/03/07 05:51:48;;;;;;;;;;;;;;;;;;;;;
2021/03/07 05:54:18;;;;;;;14.43;7.20;;;;;;;;;;4407853;32;20145;-76
2021/03/07 05:57:01;;;;;;;9.50;6.27;;;;;;;;;;4393001;32;20165;-76
2021/03/07 05:59:44;;;;;;;;;;;;;;;;;;;;;
2021/03/07 06:02:23;;;;;;;9.30;7.43;;;;;;;;;;4403276;32;20155;-76
2021/03/07 06:05:02;;;;;;;12.77;6.70;;;;;;;;;;4393199;32;20166;-76
2021/03/07 06:07:30;;;;;;;11.13;7.20;;;;;;;;;;4393113;32;20184;-77
2021/03/07 06:10:12;;;;;;;14.63;8.23;;;;;;;;;;4393077;32;20211;-77
2021/03/07 06:12:37;;;;;;;10.07;7.07;;;;;;;;;;4406667;32;20489;-77
2021/03/07 06:15:06;;;;;;;10.93;6.87;;;;;;;;;;4393276;32;20191;-77
2021/03/07 06:17:42;;;;;;;11.80;7.00;;;;;;;;;;4392688;32;20203;-77
2021/03/07 06:20:11;;;;;;;9.53;6.80;;;;;;;;;;4393075;32;20157;-77
2021/03/07 06:22:47;;;;;;;12.63;7.20;;;;;;;;;;4392694;32;20213;-77
2021/03/07 06:26:01;;;;;;;10.03;6.47;;;;;;;;;;4403722;32;20142;-77
2021/03/07 06:28:30;;;;;;;10.07;5.93;;;;;;;;;;4361782;32;20162;-77
2021/03/07 06:34:27;;;;;;;8.57;5.70;;;;;;;;;;4359061;32;20747;-78
2021/03/07 06:37:03;;;;;;;10.17;5.83;;;;;;;;;;4375647;32;20186;-77
2021/03/07 06:39:34;;;;;;;9.70;5.50;;;;;;;;;;4392555;32;20188;-77
2021/03/07 06:42:09;;;;;;;11.17;5.53;;;;;;;;;;4392748;32;20165;-77
2021/03/07 06:44:55;;;;;;;9.43;5.80;;;;;;;;;;4392588;32;20264;-77
2021/03/07 06:47:24;;;;;;;10.93;5.90;;;;;;;;;;4391458;32;20169;-76
2021/03/07 06:50:28;;;;;;;8.20;5.83;;;;;;;;;;4392641;32;20576;-76
2021/03/07 06:53:10;;;;;;;10.33;5.97;;;;;;;;;;4392322;32;20271;-76
2021/03/07 06:56:17;;;;;;;9.50;5.53;;;;;;;;;;4391518;32;20197;-76
2021/03/07 06:58:36;;;;;;;9.83;5.70;;;;;;;;;;4403473;32;20174;-78
2021/03/07 07:01:36;;;;;;;7.50;5.27;;;;;;;;;;4392073;32;20237;-78
2021/03/07 07:04:10;;;;;;;7.37;5.40;;;;;;;;;;4405311;32;20165;-76
2021/03/07 07:06:39;;;;;;;7.43;5.50;;;;;;;;;;4392236;32;20193;-76
2021/03/07 07:09:19;;;;;;;7.87;4.93;;;;;;;;;;4392000;32;20583;-76
2021/03/07 07:11:49;;;;;;;10.80;5.90;;;;;;;;;;4392368;32;20201;-75
2021/03/07 07:14:30;;;;;;;9.23;5.60;;;;;;;;;;4406321;32;20514;-76
2021/03/07 07:16:56;;;;;;;8.40;5.33;;;;;;;;;;4392002;32;20344;-76
2021/03/07 07:19:24;;;;;;;8.20;5.33;;;;;;;;;;4406137;32;20196;-76
2021/03/07 07:22:22;;;;;;;10.27;6.07;;;;;;;;;;4406766;32;20130;-76
2021/03/07 07:25:29;;;;;;;8.77;5.40;;;;;;;;;;4391890;32;20330;-77
2021/03/07 07:27:52;;;;;;;10.10;5.87;;;;;;;;;;4402461;32;20162;-78
2021/03/07 07:30:18;;;;;;;7.43;5.90;;;;;;;;;;4391114;32;20165;-78
2021/03/07 07:32:50;;;;;;;10.70;6.17;;;;;;;;;;4405897;32;20161;-77
2021/03/07 07:35:43;;;;;;;8.00;5.70;;;;;;;;;;4405825;32;20150;-77
2021/03/07 07:38:11;;;;;;;11.50;5.77;;;;;;;;;;4391241;32;20175;-77
2021/03/07 07:40:41;;;;;;;12.23;6.40;;;;;;;;;;4391530;32;20166;-77
2021/03/07 07:43:16;;;;;;;9.73;6.37;;;;;;;;;;4391717;32;20192;-76
2021/03/07 07:46:05;;;;;;;8.57;5.70;;;;;;;;;;4391668;32;20161;-76
2021/03/07 07:49:03;;;;;;;10.30;6.43;;;;;;;;;;4391095;32;20174;-77
2021/03/07 07:51:38;;;;;;;12.43;6.53;;;;;;;;;;4365622;32;20170;-77
2021/03/07 07:55:07;;;;;;;10.90;6.50;;;;;;;;;;4391686;32;20222;-77
2021/03/07 07:57:40;;;;;;;13.00;6.70;;;;;;;;;;4401017;32;20501;-76
2021/03/07 08:00:45;;;;;;;10.70;6.00;;;;;;;;;;4390757;32;20283;-76
2021/03/07 08:03:49;;;;;;;9.87;6.10;;;;;;;;;;4345759;33;20182;-76
2021/03/07 08:06:57;;;;;;;14.43;6.20;;;;;;;;;;4345838;33;20208;-76
2021/03/07 08:09:58;;;;;;;9.57;6.30;;;;;;;;;;4387421;32;20177;-76
2021/03/07 08:12:42;;;;;;;11.40;6.60;;;;;;;;;;4391135;32;20157;-77
2021/03/07 08:15:39;;;;;;;;;;;;;;;;;;;;;
2021/03/07 08:18:08;;;;;;;11.63;7.70;;;;;;;;;;4405634;32;20157;-78
2021/03/07 08:20:59;;;;;;;13.23;7.47;;;;;;;;;;4390799;32;20226;-76
2021/03/07 08:23:25;;;;;;;13.37;7.33;;;;;;;;;;4391199;32;20255;-78
2021/03/07 08:25:50;;;;;;;11.50;6.93;;;;;;;;;;4405603;32;20138;-77
2021/03/07 08:28:27;;;;;;;14.13;7.43;;;;;;;;;;4405340;32;20187;-78
2021/03/07 08:31:03;;;;;;;14.57;7.50;;;;;;;;;;4391298;32;20177;-77
2021/03/07 08:33:29;;;;;;;14.17;7.43;;;;;;;;;;4390975;32;20579;-77
2021/03/07 08:36:15;;;;;;;11.87;7.03;;;;;;;;;;4404862;32;20174;-77
2021/03/07 08:38:53;;;;;;;12.13;7.47;;;;;;;;;;4388320;32;20165;-76
2021/03/07 08:41:42;;;;;;;12.03;7.47;;;;;;;;;;4389035;32;20182;-77
2021/03/07 08:44:11;;;;;;;15.17;8.17;;;;;;;;;;4390574;32;20170;-78
2021/03/07 08:46:57;;;;;;;13.63;7.77;;;;;;;;;;4391762;32;20158;-78
2021/03/07 08:49:25;;;;;;;10.33;7.37;;;;;;;;;;4394073;32;20682;-77
2021/03/07 08:51:51;;;;;;;14.10;7.27;;;;;;;;;;4399340;32;20177;-79
2021/03/07 08:54:37;;;;;;;11.60;7.17;;;;;;;;;;4392555;32;20214;-76
2021/03/07 08:57:17;;;;;;;9.40;6.50;;;;;;;;;;4391458;32;20208;-78
2021/03/07 08:59:43;;;;;;;12.23;6.73;;;;;;;;;;4391257;32;20607;-77
2021/03/07 09:02:08;;;;;;;9.93;6.87;;;;;;;;;;4391264;32;20170;-77
2021/03/07 09:05:00;;;;;;;;;;;;;;;;;;;;;
2021/03/07 09:07:40;;;;;;;12.53;7.00;;;;;;;;;;4392887;32;20169;-76
2021/03/07 09:10:05;;;;;;;13.20;7.57;;;;;;;;;;4392921;32;20222;-76
2021/03/07 09:12:30;;;;;;;11.70;6.83;;;;;;;;;;4392239;32;20269;-76
2021/03/07 09:15:15;;;;;;;10.63;6.47;;;;;;;;;;4390946;32;20171;-76
2021/03/07 09:17:40;;;;;;;10.87;6.60;;;;;;;;;;4392678;32;20225;-77
2021/03/07 09:20:06;;;;;;;14.80;7.53;;;;;;;;;;4391265;32;20626;-78
2021/03/07 09:22:35;;;;;;;16.10;7.07;;;;;;;;;;4390855;32;20185;-76
2021/03/07 09:25:04;;;;;;;16.43;7.80;;;;;;;;;;4390973;32;20580;-77
2021/03/07 09:27:33;;;;;;;11.50;7.13;;;;;;;;;;4391910;32;20158;-76
2021/03/07 09:30:33;;;;;;;12.30;6.77;;;;;;;;;;4390416;32;20503;-77
2021/03/07 09:33:12;;;;;;;10.30;6.30;;;;;;;;;;4384321;32;20200;-77
2021/03/07 09:35:47;;;;;;;9.80;6.40;;;;;;;;;;4391769;32;20142;-77
2021/03/07 09:38:15;;;;;;;11.37;6.57;;;;;;;;;;4388893;32;20224;-77
2021/03/07 09:40:52;;;;;;;10.50;6.23;;;;;;;;;;4390011;32;20177;-77
2021/03/07 09:43:23;;;;;;;9.20;5.83;;;;;;;;;;4397968;32;20158;-76
2021/03/07 09:46:01;;;;;;;12.23;6.70;;;;;;;;;;4405689;32;20162;-76
2021/03/07 09:48:49;;;;;;;10.90;6.43;;;;;;;;;;4393835;32;20178;-77
2021/03/07 09:51:22;;;;;;;11.77;6.27;;;;;;;;;;4390690;32;20331;-78
2021/03/07 09:53:50;;;;;;;12.87;6.60;;;;;;;;;;4390640;32;20203;-77
2021/03/07 09:56:35;;;;;;;10.50;6.37;;;;;;;;;;4390459;32;20279;-75
2021/03/07 09:59:35;;;;;;;10.60;5.43;;;;;;;;;;4392079;32;20574;-76
2021/03/07 10:02:09;;;;;;;9.63;5.60;;;;;;;;;;4386174;32;20210;-77
2021/03/07 10:04:52;;;;;;;10.03;5.47;;;;;;;;;;4390309;32;20166;-76
2021/03/07 10:07:26;;;;;;;13.03;6.17;;;;;;;;;;4392202;32;20545;-76
2021/03/07 10:10:19;;;;;;;5.23;3.60;;;;;;;;;;4391334;32;20162;-76
2021/03/07 10:13:02;;;;;;;7.23;4.93;;;;;;;;;;4390901;32;20185;-76
2021/03/07 10:16:02;;;;;;;7.50;5.10;;;;;;;;;;4380774;32;20167;-76
2021/03/07 10:18:28;;;;;;;5.87;4.10;;;;;;;;;;4365947;32;20171;-77
2021/03/07 10:20:59;;;;;;;5.07;3.73;;;;;;;;;;4376486;32;20169;-77
2021/03/07 10:23:42;;;;;;;9.70;4.20;;;;;;;;;;4376388;32;20189;-78
2021/03/07 10:26:11;;;;;;;7.47;4.07;;;;;;;;;;4374997;32;20209;-77
2021/03/07 10:28:47;;;;;;;6.23;4.30;;;;;;;;;;4376289;32;20203;-77
2021/03/07 10:31:23;;;;;;;9.23;4.70;;;;;;;;;;4375487;32;20232;-77
2021/03/07 10:33:52;;;;;;;7.53;4.83;;;;;;;;;;4375152;32;20170;-74
2021/03/07 10:36:19;;;;;;;7.77;4.17;;;;;;;;;;4374931;32;20174;-76
2021/03/07 10:38:56;;;;;;;7.33;4.20;;;;;;;;;;4375975;32;20218;-77
2021/03/07 10:41:27;;;;;;;7.77;4.23;;;;;;;;;;4362547;32;20546;-76
2021/03/07 10:43:54;;;;;;;7.17;4.60;;;;;;;;;;4362210;32;20245;-77
2021/03/07 10:46:26;;;;;;;6.90;4.37;;;;;;;;;;4362655;32;20495;-77
2021/03/07 10:49:02;;;;;;;6.00;4.60;;;;;;;;;;4362297;32;20170;-78
2021/03/07 10:51:27;;;;;;;5.47;3.00;;;;;;;;;;4362025;32;20178;-78
2021/03/07 10:54:20;;;;;;;5.37;3.07;;;;;;;;;;4376413;32;20158;-78
2021/03/07 10:56:46;;;;;;;5.63;3.00;;;;;;;;;;4376483;32;20165;-76
2021/03/07 10:59:11;;;;;;;4.90;3.27;;;;;;;;;;4375832;32;20169;-77
2021/03/07 11:01:49;;;;;;;6.07;3.50;;;;;;;;;;4362075;32;20170;-77
2021/03/07 11:04:22;;;;;;;5.10;3.43;;;;;;;;;;4362091;32;20162;-77
2021/03/07 11:06:50;;;;;;;4.70;3.03;;;;;;;;;;4361569;32;20167;-78
2021/03/07 11:09:21;;;;;;;7.93;3.83;;;;;;;;;;4361936;32;20207;-77
2021/03/07 11:12:00;;;;;;;5.23;2.97;;;;;;;;;;4362071;32;20170;-77
2021/03/07 11:14:33;;;;;;;4.27;2.83;;;;;;;;;;4369247;32;20255;-78
2021/03/07 11:17:06;;;;;;;4.27;2.83;;;;;;;;;;4391027;32;20444;-77
2021/03/07 11:19:36;;;;;;;6.47;3.20;;;;;;;;;;4391196;32;20161;-77
2021/03/07 11:22:02;;;;;;;5.93;3.10;;;;;;;;;;4390877;32;20181;-77
2021/03/07 11:24:27;;;;;;;4.10;2.80;;;;;;;;;;4376541;32;20171;-77
2021/03/07 11:26:54;;;;;;;6.17;3.07;;;;;;;;;;4376808;32;20232;-77
2021/03/07 11:29:19;;;;;;;4.73;2.90;;;;;;;;;;4390223;32;20193;-77
2021/03/07 11:31:45;;;;;;;3.37;2.30;;;;;;;;;;4390548;32;20592;-76
2021/03/07 11:34:10;;;;;;;4.20;2.90;;;;;;;;;;4375543;32;20229;-77
2021/03/07 11:36:52;;;;;;;8.50;3.00;;;;;;;;;;4375933;32;20166;-76
2021/03/07 11:39:28;;;;;;;4.70;3.63;;;;;;;;;;4376359;32;20179;-77
2021/03/07 11:41:58;;;;;;;4.10;2.70;;;;;;;;;;4389030;32;20200;-77
2021/03/07 11:44:33;;;;;;;6.10;2.70;;;;;;;;;;4390658;32;20195;-77
2021/03/07 11:47:06;;;;;;;6.60;2.20;;;;;;;;;;4390371;32;20264;-76
2021/03/07 11:49:41;;;;;;;3.13;2.17;;;;;;;;;;4390564;32;20177;-77
2021/03/07 11:52:35;;;;;;;3.93;2.23;;;;;;;;;;4376732;32;20161;-76
2021/03/07 11:55:15;;;;;;;4.57;2.10;;;;;;;;;;4376468;32;20192;-76
2021/03/07 11:58:12;;;;;;;3.63;2.37;;;;;;;;;;4376115;32;20601;-76
2021/03/07 12:00:43;;;;;;;3.97;2.10;;;;;;;;;;4373609;32;20175;-77
2021/03/07 12:03:27;;;;;;;3.93;1.90;;;;;;;;;;4390743;32;20147;-76
2021/03/07 12:06:02;;;;;;;6.03;2.00;;;;;;;;;;4390682;32;20146;-77
2021/03/07 12:08:30;;;;;;;7.43;4.40;;;;;;;;;;4390126;32;20168;-73
2021/03/07 12:11:08;;;;;;;6.00;2.73;;;;;;;;;;4376900;32;20593;-77
2021/03/07 12:13:33;;;;;;;7.07;3.00;;;;;;;;;;4390494;32;20161;-76
2021/03/07 12:16:01;;;;;;;2.93;2.13;;;;;;;;;;4375987;32;20185;-76
2021/03/07 12:18:26;;;;;;;3.20;2.10;;;;;;;;;;4375713;32;20166;-77
2021/03/07 12:20:51;;;;;;;4.27;2.00;;;;;;;;;;4389810;32;20169;-76
2021/03/07 12:23:17;;;;;;;3.87;2.20;;;;;;;;;;4389841;32;20164;-77
2021/03/07 12:25:48;;;;;;;3.93;2.20;;;;;;;;;;4375931;32;20231;-76
2021/03/07 12:28:14;;;;;;;5.00;2.23;;;;;;;;;;4375788;32;20212;-77
2021/03/07 12:31:07;;;;;;;;;;;;;;;;;;;;;
2021/03/07 12:33:33;;;;;;;6.70;2.80;;;;;;;;;;4390121;32;20161;-77
2021/03/07 12:36:01;;;;;;;4.87;2.40;;;;;;;;;;4375789;32;20166;-77
2021/03/07 12:38:26;;;;;;;5.43;2.57;;;;;;;;;;4375168;32;20170;-76
2021/03/07 12:40:54;;;;;;;6.67;2.30;;;;;;;;;;4375985;32;20167;-77
2021/03/07 12:43:25;;;;;;;4.27;2.17;;;;;;;;;;4376098;32;20595;-77
2021/03/07 12:45:51;;;;;;;3.23;1.63;;;;;;;;;;4375621;32;20576;-76
2021/03/07 12:48:16;;;;;;;5.27;1.47;;;;;;;;;;4375694;32;20187;-77
2021/03/07 12:50:42;;;;;;;3.67;1.40;;;;;;;;;;4375798;32;20185;-77
2021/03/07 12:56:10;;;;;;;5.40;1.40;;;;;;;;;;4357389;33;20163;-78
2021/03/07 12:59:03;;;;;;;3.70;1.37;;;;;;;;;;4357450;33;20186;-77
2021/03/07 13:01:28;;;;;;;2.67;1.30;;;;;;;;;;4389820;32;20244;-77
2021/03/07 13:03:54;;;;;;;3.00;1.30;;;;;;;;;;4375414;32;20179;-75
2021/03/07 13:06:25;;;;;;;5.47;1.27;;;;;;;;;;4389312;32;20138;-76
2021/03/07 13:09:05;;;;;;;3.07;1.30;;;;;;;;;;4375874;32;20174;-77
2021/03/07 13:11:33;;;;;;;1.97;1.20;;;;;;;;;;4376152;32;20261;-77
2021/03/07 13:14:09;;;;;;;5.13;1.67;;;;;;;;;;4389458;32;20196;-77
2021/03/07 13:16:34;;;;;;;7.90;4.60;;;;;;;;;;4375669;32;20157;-76
2021/03/07 13:18:59;;;;;;;8.53;4.97;;;;;;;;;;4389246;32;20296;-76
2021/03/07 13:22:13;;;;;;;9.47;5.43;;;;;;;;;;4375539;32;20205;-78
2021/03/07 13:24:38;;;;;;;12.43;6.00;;;;;;;;;;4385040;32;20193;-76
2021/03/07 13:27:04;;;;;;;9.43;5.00;;;;;;;;;;4389329;32;20130;-77
2021/03/07 13:30:01;;;;;;;9.07;5.30;;;;;;;;;;4390601;32;20138;-77
2021/03/07 13:32:26;;;;;;;9.23;5.40;;;;;;;;;;4385879;32;20239;-76
2021/03/07 13:34:54;;;;;;;8.80;5.07;;;;;;;;;;4378091;32;20508;-77
2021/03/07 13:37:26;;;;;;;11.40;5.83;;;;;;;;;;4377921;32;20158;-77
2021/03/07 13:40:40;;;;;;;8.83;5.10;;;;;;;;;;4384314;32;20599;-76
2021/03/07 13:42:58;;;;;;;7.13;4.53;;;;;;;;;;4382320;32;20586;-76
2021/03/07 13:45:36;;;;;;;10.37;4.93;;;;;;;;;;4377472;32;20159;-75
2021/03/07 13:48:54;;;;;;;;;;;;;;;;;;;;;
2021/03/07 13:50:54;;;;;;;10.30;4.87;;;;;;;;;;4381012;32;20648;-76
2021/03/07 13:53:19;;;;;;;11.50;5.10;;;;;;;;;;4391298;32;20139;-76
2021/03/07 13:55:47;;;;;;;7.47;4.20;;;;;;;;;;4391075;32;20213;-77
2021/03/07 13:58:15;;;;;;;6.80;3.57;;;;;;;;;;4377353;32;20229;-76
2021/03/07 14:00:50;;;;;;;4.87;2.80;;;;;;;;;;4377633;32;20166;-76
2021/03/07 14:03:18;;;;;;;5.80;2.60;;;;;;;;;;4376301;32;20236;-76
2021/03/07 14:06:18;;;;;;;5.93;2.93;;;;;;;;;;4390827;32;20168;-76
2021/03/07 14:08:50;;;;;;;4.67;2.43;;;;;;;;;;4353362;32;20670;-76
2021/03/07 14:11:24;;;;;;;6.30;3.03;;;;;;;;;;4391628;32;20181;-76
2021/03/07 14:13:50;;;;;;;7.13;3.80;;;;;;;;;;4376920;32;20170;-75
2021/03/07 14:16:21;;;;;;;8.73;4.33;;;;;;;;;;4376822;32;20225;-77
2021/03/07 14:18:58;;;;;;;7.07;4.20;;;;;;;;;;4391257;32;20146;-77
2021/03/07 14:21:23;;;;;;;9.00;3.83;;;;;;;;;;4377071;32;20157;-76
2021/03/07 14:23:54;;;;;;;11.33;4.50;;;;;;;;;;4376921;32;20232;-75
2021/03/07 14:26:38;;;;;;;9.97;5.20;;;;;;;;;;4376965;32;20159;-75
2021/03/07 14:29:04;;;;;;;9.67;5.10;;;;;;;;;;4379312;32;20177;-76
2021/03/07 14:31:43;;;;;;;11.60;5.77;;;;;;;;;;4375518;32;20236;-75
2021/03/07 14:34:09;;;;;;;11.17;6.10;;;;;;;;;;4377493;32;20185;-76
2021/03/07 14:36:37;;;;;;;12.77;5.93;;;;;;;;;;4377216;32;20494;-75
2021/03/07 14:39:03;;;;;;;12.20;6.50;;;;;;;;;;4399081;32;20162;-76
2021/03/07 14:41:59;;;;;;;14.70;6.50;;;;;;;;;;4392091;32;20181;-75
2021/03/07 14:47:44;;;;;;;8.37;5.00;;;;;;;;;;4358459;32;20637;-75
2021/03/07 14:50:16;;;;;;;11.13;5.87;;;;;;;;;;4358802;32;20678;-76
2021/03/07 14:52:42;;;;;;;13.73;6.83;;;;;;;;;;4397183;32;20150;-76
2021/03/07 14:55:17;;;;;;;10.87;5.67;;;;;;;;;;4392062;32;20205;-75
2021/03/07 15:00:54;;;;;;;9.17;5.60;;;;;;;;;;4386978;32;20170;-76
2021/03/07 15:03:19;;;;;;;11.27;6.23;;;;;;;;;;4391661;32;20505;-75
2021/03/07 15:05:44;;;;;;;10.33;5.17;;;;;;;;;;4391576;32;20234;-76
2021/03/07 15:08:15;;;;;;;10.53;5.47;;;;;;;;;;4405519;32;20555;-75
2021/03/07 15:10:52;;;;;;;10.43;6.00;;;;;;;;;;4405320;32;20597;-74
2021/03/07 15:13:34;;;;;;;11.50;5.70;;;;;;;;;;4391552;32;20604;-76
2021/03/07 15:15:59;;;;;;;11.27;5.53;;;;;;;;;;4389732;32;20483;-76
2021/03/07 15:18:24;;;;;;;9.20;4.47;;;;;;;;;;4391536;32;20196;-77
2021/03/07 15:20:50;;;;;;;7.70;4.33;;;;;;;;;;4388639;32;20175;-75
2021/03/07 15:23:15;;;;;;;8.90;4.50;;;;;;;;;;4388704;32;20197;-76
2021/03/07 15:26:04;;;;;;;9.13;5.27;;;;;;;;;;4388789;32;20170;-76
2021/03/07 15:28:41;;;;;;;10.90;5.40;;;;;;;;;;4389807;32;20162;-74
2021/03/07 15:31:08;;;;;;;15.30;7.90;;;;;;;;;;4399817;32;20497;-77
2021/03/07 15:33:33;;;;;;;12.70;7.13;;;;;;;;;;4412746;32;20173;-75
2021/03/07 15:35:59;;;;;;;14.73;7.07;;;;;;;;;;4391512;32;20216;-76
2021/03/07 15:38:31;;;;;;;13.23;7.40;;;;;;;;;;4388616;32;20503;-76
2021/03/07 15:40:56;;;;;;;14.97;9.13;;;;;;;;;;4390687;32;20162;-77
2021/03/07 15:43:22;;;;;;;19.73;9.67;;;;;;;;;;4391184;32;20211;-73
2021/03/07 15:45:47;;;;;;;18.17;10.23;;;;;;;;;;4404869;32;20135;-74
2021/03/07 15:48:12;;;;;;;17.83;10.70;;;;;;;;;;4375495;32;20599;-72
2021/03/07 15:50:37;;;;;;;19.50;10.23;;;;;;;;;;4386968;32;20161;-74
2021/03/07 15:53:03;;;;;;;18.30;10.13;;;;;;;;;;4390888;32;20181;-77
2021/03/07 15:55:37;;;;;;;18.10;9.97;;;;;;;;;;4404846;32;20142;-79
2021/03/07 15:58:03;;;;;;;20.73;10.87;;;;;;;;;;4405851;32;20151;-80
2021/03/07 16:06:43;;;;;;;24.63;11.47;;;;;;;;;;4372377;32;20159;-79
2021/03/07 16:09:19;;;;;;;22.37;10.43;;;;;;;;;;4375244;32;20487;-78
2021/03/07 16:11:44;;;;;;;21.03;11.30;;;;;;;;;;4387197;32;20238;-77
2021/03/07 16:14:12;;;;;;;25.07;13.03;;;;;;;;;;4387105;32;20189;-79
2021/03/07 16:16:43;;;;;;;23.33;11.30;;;;;;;;;;4387164;32;20177;-79